Terminal Aerodrome Forecast
Issued by NWS

Home | Current Version | Previous Version | Text Only | Print | Product List | Glossary On
Versions: 1 2 3 4 5 6 7 8 9 10 11 12 13 14 15 16 17 18 19 20 21 22 23 24 25 26
287
FTUS43 KLSX 241130
TAFUIN
TAF
KUIN 241130Z 2412/2512 17010G16KT P6SM SCT250 WS016/22040KT
     FM241400 19013G23KT P6SM BKN150
     FM250000 22008KT P6SM VCTS OVC050CB
     FM250200 14006KT 5SM -TSRA OVC030CB
     FM250400 12008KT 5SM -SHRA OVC015=

USA.gov is the U.S. government's official web portal to all federal, state and local government web resources and services.